Data for 10/24/2005

Time Sea-Level Adjusted Pressure Absolute Pressure Temperature Relative Humidity Dew Point   
(mb) (inHg) (mb) (inHg) (C) (F) (%) (C) (F)
00:05 1020 30.12 849 25.07 10.4 50.6 50 0.6 33
00:10 1020 30.12 849 25.07 10.3 50.6 50 0.5 33
00:15 1020 30.12 849 25.07 10.3 50.6 51 0.7 33.2
00:20 1020 30.12 849 25.07 10.1 50.2 51 0.5 33
00:25 1020 30.12 849 25.07 9.8 49.7 52 0.5 32.8
00:30 1020 30.12 849 25.07 9.9 49.9 51 0.2 32.4
00:35 1020 30.12 849 25.07 9.5 49.2 53 0.6 33
00:40 1020 30.12 849 25.07 9.6 49.3 52 0.3 32.5
00:45 1020 30.12 849 25.07 9.8 49.7 52 0.4 32.7
00:50 1020 30.12 849 25.07 9.7 49.4 52 0.4 32.8
00:55 1020 30.12 849 25.07 9 48.2 55 0.4 32.7
01:00 1020 30.12 849 25.07 8.9 48.1 55 0.5 32.8
01:05 1020 30.12 849 25.07 8.9 48.1 55 0.4 32.8
01:10 1020 30.12 849 25.07 8.9 48.1 55 0.3 32.6
01:15 1020 30.12 849 25.07 8.8 47.9 55 0.4 32.7
01:20 1020 30.12 849 25.07 8.6 47.5 56 0.3 32.5
01:25 1020 30.12 849 25.07 8.8 47.8 55 0.2 32.3
01:30 1020 30.12 849 25.07 8.7 47.7 55 0.3 32.5
01:35 1020 30.12 849 25.07 8.3 46.9 57 0.3 32.5
01:40 1020 30.12 849 25.07 8.5 47.3 55 -0.1 31.8
01:45 1020 30.12 849 25.07 9.3 48.8 53 0.4 32.7
01:50 1020 30.12 849 25.07 9.4 48.8 52 -0.1 31.9
01:55 1020 30.12 849 25.07 9.9 49.9 50 0 32.1
02:00 1020 30.12 849 25.07 9.9 49.8 52 0.5 32.9
02:05 1020 30.12 849 25.07 10 49.9 50 0.2 32.3
02:10 1020 30.12 850 25.1 9.5 49.2 52 0.1 32.2
02:15 1020 30.12 850 25.1 9.5 49 52 0.1 32.3
02:20 1020 30.12 850 25.1 9.3 48.8 52 0 32.1
02:25 1020 30.12 850 25.1 9.4 48.9 52 0 32
02:30 1020 30.12 850 25.1 9.3 48.7 53 0.1 32.2
02:35 1020 30.12 850 25.1 9.2 48.6 52 -0.1 31.9
02:40 1020 30.12 850 25.1 9.1 48.4 53 0 32.1
02:45 1020 30.12 850 25.1 9.2 48.5 52 -0.2 31.6
02:50 1021 30.15 850 25.1 9 48.2 53 -0.1 31.9
02:55 1021 30.15 850 25.1 8.9 48 53 -0.1 31.9
03:00 1021 30.15 850 25.1 8.9 48 52 -0.3 31.5
03:05 1021 30.15 850 25.1 8.8 47.8 53 -0.2 31.7
03:10 1021 30.15 850 25.1 9 48.2 52 -0.2 31.7
03:15 1021 30.15 850 25.1 9.1 48.4 52 -0.3 31.5
03:20 1021 30.15 850 25.1 9.1 48.4 52 -0.2 31.7
03:25 1021 30.15 850 25.1 8.8 47.9 53 -0.2 31.7
03:30 1021 30.15 850 25.1 8.5 47.2 55 -0.1 31.9
03:35 1021 30.15 850 25.1 8 46.5 55 -0.5 31.2
03:40 1021 30.15 850 25.1 8.1 46.5 56 -0.1 31.9
03:45 1021 30.15 850 25.1 7.7 45.9 57 -0.2 31.6
03:50 1021 30.15 850 25.1 7.6 45.7 57 -0.4 31.2
03:55 1021 30.15 850 25.1 7.9 46.3 56 -0.3 31.4
04:00 1021 30.15 850 25.1 8.3 46.9 55 -0.3 31.5
04:05 1021 30.15 850 25.1 8.3 47 55 -0.2 31.7
04:10 1021 30.15 850 25.1 8.3 46.9 55 -0.3 31.5
04:15 1021 30.15 850 25.1 8.2 46.7 55 -0.3 31.4
04:20 1021 30.15 850 25.1 8.3 46.9 55 -0.3 31.5
04:25 1021 30.15 850 25.1 8.2 46.8 56 -0.1 31.8
04:30 1021 30.15 850 25.1 7.9 46.2 57 -0.1 31.9
04:35 1021 30.15 850 25.1 7.7 45.8 58 -0 31.9
04:40 1021 30.15 850 25.1 7.8 46 56 -0.5 31.1
04:45 1021 30.15 850 25.1 8.1 46.6 55 -0.4 31.3
04:50 1021 30.15 850 25.1 7.9 46.3 57 -0.1 31.8
04:55 1021 30.15 850 25.1 7.4 45.3 59 -0.2 31.7
05:00 1021 30.15 850 25.1 7.3 45.1 58 -0.4 31.2
05:05 1021 30.15 850 25.1 7.5 45.6 57 -0.3 31.4
05:10 1021 30.15 850 25.1 7.2 45 59 -0.1 31.8
05:15 1021 30.15 850 25.1 7.3 45.1 58 -0.5 31.1
05:20 1021 30.15 850 25.1 7.6 45.6 57 -0.4 31.3
05:25 1021 30.15 850 25.1 7.8 46.1 56 -0.3 31.4
05:30 1021 30.15 850 25.1 7.7 45.9 57 -0.2 31.6
05:35 1021 30.15 850 25.1 7.4 45.3 57 -0.4 31.2
05:40 1021 30.15 850 25.1 7.6 45.6 58 -0.2 31.6
05:45 1021 30.15 850 25.1 7.2 45 59 -0.4 31.4
05:50 1021 30.15 850 25.1 6.8 44.2 61 -0.3 31.4
05:55 1021 30.15 851 25.13 6.8 44.2 60 -0.5 31.2
06:00 1021 30.15 851 25.13 6.7 44.1 60 -0.5 31
06:05 1021 30.15 851 25.13 7 44.6 59 -0.5 31.2
06:10 1021 30.15 851 25.13 6.8 44.3 60 -0.4 31.2
06:15 1021 30.15 851 25.13 7.1 44.7 60 -0.2 31.7
06:20 1021 30.15 851 25.13 6.8 44.2 60 -0.4 31.3
06:25 1022 30.18 851 25.13 7.4 45.3 57 -0.5 31.2
06:30 1022 30.18 851 25.13 7.3 45.2 59 -0.1 31.8
06:35 1022 30.18 851 25.13 7.1 44.9 60 -0.1 31.9
06:40 1022 30.18 851 25.13 6.6 43.8 61 -0.4 31.4
06:45 1022 30.18 851 25.13 7.1 44.8 58 -0.5 31.1
06:50 1022 30.18 851 25.13 7.8 46.1 56 -0.3 31.5
06:55 1022 30.18 851 25.13 7.9 46.2 56 -0.3 31.4
07:00 1022 30.18 851 25.13 7.8 46.1 56 -0.3 31.4
07:05 1022 30.18 851 25.13 7.7 45.8 58 -0.1 31.8
07:10 1022 30.18 851 25.13 7.3 45.1 59 -0.3 31.5
07:15 1022 30.18 851 25.13 7.2 44.9 59 -0.3 31.5
07:20 1022 30.18 851 25.13 6.9 44.5 60 -0.3 31.5
07:25 1022 30.18 851 25.13 6.9 44.3 60 -0.3 31.4
07:30 1022 30.18 851 25.13 6.7 44 60 -0.5 31.1
07:35 1022 30.18 851 25.13 6.6 43.9 61 -0.4 31.3
07:40 1022 30.18 851 25.13 6.9 44.4 59 -0.5 31.1
07:45 1022 30.18 851 25.13 7.1 44.9 58 -0.5 31.2
07:50 1022 30.18 851 25.13 7.4 45.3 57 -0.4 31.2
07:55 1022 30.18 851 25.13 7.4 45.3 58 -0.4 31.3
08:00 1022 30.18 851 25.13 7.3 45.2 58 -0.3 31.4
08:05 1022 30.18 851 25.13 7.1 44.7 59 -0.5 31.2
08:10 1022 30.18 851 25.13 7.1 44.8 59 -0.3 31.4
08:15 1022 30.18 851 25.13 6.9 44.5 60 -0.3 31.4
08:20 1022 30.18 851 25.13 7.4 45.3 57 -0.6 31
08:25 1022 30.18 852 25.16 7.7 45.9 56 -0.5 31.1
08:30 1022 30.18 852 25.16 7.9 46.2 55 -0.6 31
08:35 1023 30.21 852 25.16 8 46.4 55 -0.5 31
08:40 1023 30.21 852 25.16 8 46.4 55 -0.5 31.1
08:45 1023 30.21 852 25.16 7.7 45.9 57 -0.3 31.5
08:50 1023 30.21 852 25.16 7 44.6 58 -0.6 31
08:55 1023 30.21 852 25.16 7.2 45 58 -0.5 31.1
09:00 1023 30.21 852 25.16 7.5 45.6 56 -0.5 31
09:05 1023 30.21 852 25.16 7.5 45.6 57 -0.3 31.4
09:10 1023 30.21 852 25.16 7.6 45.7 57 -0.3 31.5
09:15 1023 30.21 852 25.16 8 46.3 56 -0.3 31.5
09:20 1023 30.21 852 25.16 8 46.4 55 -0.5 31.1
09:25 1023 30.21 852 25.16 8.5 47.3 55 -0.1 31.8
09:30 1023 30.21 852 25.16 8.5 47.3 56 0.2 32.4
09:35 1023 30.21 852 25.16 8.8 47.8 54 0.1 32.2
09:40 1023 30.21 852 25.16 9.6 49.3 52 0.2 32.4
09:45 1023 30.21 852 25.16 10.9 51.6 48 0.4 32.7
09:50 1023 30.21 852 25.16 11 51.8 48 0.5 32.9
09:55 1023 30.21 852 25.16 11.3 52.4 47 0.5 32.8
10:00 1023 30.21 852 25.16 11.8 53.2 46 0.7 33.3
10:05 1023 30.21 852 25.16 12 53.7 45 0.4 32.8
10:10 1023 30.21 852 25.16 11.9 53.4 46 0.6 33.2
10:15 1023 30.21 852 25.16 12.5 54.4 43 0.4 32.8
10:20 1023 30.21 852 25.16 12.8 55 43 0.6 33.1
10:25 1023 30.21 852 25.16 13.3 55.9 41 0.2 32.4
10:30 1023 30.21 852 25.16 13.2 55.7 42 0.5 32.9
10:35 1023 30.21 852 25.16 12.9 55.2 42 0.4 32.8
10:40 1023 30.21 852 25.16 12.7 54.8 44 0.9 33.5
10:45 1023 30.21 852 25.16 13.2 55.8 43 1.1 33.9
10:50 1023 30.21 852 25.16 14.2 57.6 41 1.4 34.5
10:55 1023 30.21 853 25.19 14.3 57.7 42 1.8 35.2
11:00 1023 30.21 853 25.19 14.4 57.9 43 2.1 35.7
11:05 1023 30.21 853 25.19 14.6 58.3 41 1.6 34.9
11:10 1023 30.21 853 25.19 14.9 58.8 41 1.9 35.5
11:15 1023 30.21 853 25.19 13.8 56.8 45 2.2 36
11:20 1023 30.21 853 25.19 13.3 55.9 46 1.9 35.4
11:25 1024 30.24 853 25.19 14.3 57.7 42 1.5 34.7
11:30 1024 30.24 853 25.19 14.7 58.5 43 2.3 36.1
11:35 1024 30.24 853 25.19 14.5 58.1 41 1.6 34.8
11:40 1024 30.24 853 25.19 14.5 58.1 41 1.4 34.5
11:45 1024 30.24 853 25.19 14.7 58.5 41 1.5 34.7
11:50 1024 30.24 853 25.19 15.4 59.7 39 1.5 34.7
11:55 1024 30.24 853 25.19 15.2 59.4 40 1.7 35.1
12:00 1024 30.24 853 25.19 15 59 41 1.9 35.4
12:05 1024 30.24 853 25.19 14.4 57.9 41 1.4 34.5
12:10 1024 30.24 853 25.19 15.4 59.7 40 1.9 35.5
12:15 1024 30.24 853 25.19 15.5 59.9 41 2.2 36
12:20 1024 30.24 853 25.19 15.7 60.2 40 2.2 35.9
12:25 1024 30.24 853 25.19 16 60.7 39 2.1 35.7
12:30 1024 30.24 853 25.19 16.5 61.6 38 2.2 36
12:35 1023 30.21 853 25.19 16.8 62.3 35 1.6 34.9
12:40 1023 30.21 853 25.19 16.8 62.3 36 1.9 35.4
12:45 1023 30.21 853 25.19 16.9 62.4 37 2.4 36.3
12:50 1023 30.21 852 25.16 17 62.5 36 2 35.6
12:55 1023 30.21 852 25.16 16.6 61.9 37 2.1 35.9
13:00 1023 30.21 852 25.16 16.6 61.9 36 1.5 34.7
13:05 1023 30.21 852 25.16 17.6 63.6 35 1.9 35.3
13:10 1023 30.21 852 25.16 17.6 63.6 35 2.2 35.9
13:15 1023 30.21 852 25.16 17.9 64.1 34 1.8 35.3
13:20 1023 30.21 852 25.16 17.8 64.1 34 1.9 35.5
13:25 1023 30.21 852 25.16 16.9 62.4 37 2.2 35.9
13:30 1023 30.21 852 25.16 17.4 63.4 33 1.3 34.3
13:35 1023 30.21 852 25.16 17.2 63 34 1.3 34.4
13:40 1023 30.21 852 25.16 17.6 63.7 34 1.7 35
13:45 1023 30.21 852 25.16 17.9 64.1 32 1.2 34.2
13:50 1023 30.21 852 25.16 17.3 63.2 33 1.2 34.1
13:55 1023 30.21 852 25.16 17.9 64.1 33 1.4 34.6
14:00 1023 30.21 852 25.16 18.2 64.7 33 1.6 35
14:05 1023 30.21 852 25.16 18.9 66 31 1.5 34.7
14:10 1023 30.21 852 25.16 18.9 65.9 33 2.3 36.1
14:15 1023 30.21 852 25.16 18.1 64.7 33 1.9 35.4
14:20 1023 30.21 852 25.16 18.6 65.5 33 2.1 35.8
14:25 1023 30.21 852 25.16 18.9 66.1 32 2.2 35.9
14:30 1023 30.21 852 25.16 19.2 66.5 32 2.1 35.7
14:35 1023 30.21 852 25.16 19.2 66.6 32 2.1 35.8
14:40 1023 30.21 852 25.16 19.4 66.8 32 2.3 36.1
14:45 1023 30.21 852 25.16 19.3 66.8 32 2.4 36.2
14:50 1023 30.21 852 25.16 19.5 67.1 32 2.3 36.2
14:55 1023 30.21 852 25.16 19.8 67.6 31 2.1 35.8
15:00 1023 30.21 852 25.16 19.9 67.8 31 2.6 36.6
15:05 1023 30.21 852 25.16 19.1 66.3 33 2.5 36.6
15:10 1023 30.21 852 25.16 19.4 66.8 32 2.4 36.3
15:15 1023 30.21 852 25.16 19.6 67.3 31 2.3 36.1
15:20 1023 30.21 852 25.16 20 67.9 31 2.3 36.1
15:25 1022 30.18 852 25.16 20.2 68.4 30 2.3 36.1
15:30 1022 30.18 852 25.16 20.4 68.7 30 2.4 36.2
15:35 1022 30.18 852 25.16 20.5 68.9 30 2.6 36.7
15:40 1022 30.18 852 25.16 20.8 69.4 29 2.5 36.4
15:45 1022 30.18 852 25.16 20.7 69.2 30 2.7 36.8
15:50 1022 30.18 852 25.16 20.8 69.4 29 2.4 36.3
15:55 1022 30.18 852 25.16 21 69.7 30 2.9 37.2
16:00 1022 30.18 852 25.16 20.7 69.3 30 2.7 36.9
16:05 1022 30.18 852 25.16 20.5 69 31 2.8 37
16:10 1022 30.18 852 25.16 20.1 68.1 31 2.7 36.9
16:15 1022 30.18 852 25.16 20.5 68.9 30 2.7 36.8
16:20 1022 30.18 852 25.16 20.9 69.7 30 2.8 37.1
16:25 1022 30.18 852 25.16 21.2 70.2 30 3.1 37.7
16:30 1022 30.18 852 25.16 20.9 69.6 30 3 37.5
16:35 1022 30.18 852 25.16 20.9 69.6 30 2.8 37.1
16:40 1022 30.18 852 25.16 20.9 69.6 30 3 37.5
16:45 1022 30.18 852 25.16 20.7 69.2 31 3 37.3
16:50 1022 30.18 851 25.13 20.6 69.1 32 3.6 38.5
16:55 1022 30.18 851 25.13 20.2 68.3 32 3.3 37.9
17:00 1022 30.18 851 25.13 19.8 67.7 34 3.5 38.4
17:05 1022 30.18 851 25.13 19.6 67.2 33 3.2 37.7
17:10 1022 30.18 851 25.13 19.7 67.4 33 3 37.4
17:15 1022 30.18 851 25.13 19.7 67.5 32 2.8 37.1
17:20 1022 30.18 851 25.13 19.9 67.7 33 3.2 37.8
17:25 1022 30.18 851 25.13 19.8 67.6 33 3.4 38.1
17:30 1022 30.18 851 25.13 19.8 67.6 33 3.2 37.7
17:35 1022 30.18 851 25.13 19.5 67 34 3.4 38.1
17:40 1022 30.18 851 25.13 18.9 66.1 34 3.1 37.6
17:45 1022 30.18 851 25.13 19 66.1 34 2.9 37.3
17:50 1022 30.18 851 25.13 18.8 65.9 35 3.2 37.7
17:55 1022 30.18 851 25.13 18 64.5 38 3.6 38.5
18:00 1022 30.18 851 25.13 17.6 63.7 39 3.6 38.5
18:05 1022 30.18 851 25.13 17.5 63.5 40 4 39.2
18:10 1022 30.18 851 25.13 17 62.7 41 4 39.2
18:15 1022 30.18 851 25.13 16.5 61.6 44 4.2 39.5
18:20 1022 30.18 851 25.13 16.2 61.1 42 3.3 37.9
18:25 1022 30.18 851 25.13 15.7 60.3 42 2.9 37.3
18:30 1022 30.18 851 25.13 15.4 59.8 41 2.3 36.2
18:35 1022 30.18 851 25.13 15.1 59.3 41 2.1 35.8
18:40 1022 30.18 851 25.13 14.7 58.4 42 2.1 35.8
18:45 1022 30.18 851 25.13 14.3 57.8 45 2.7 36.8
18:50 1022 30.18 851 25.13 14 57.1 45 2.2 36
18:55 1022 30.18 851 25.13 13.4 56.2 47 2.3 36.2
19:00 1022 30.18 851 25.13 12.9 55.3 48 2.2 35.9
19:05 1022 30.18 852 25.16 12.3 54.1 49 1.8 35.3
19:10 1022 30.18 852 25.16 12.1 53.7 49 1.7 35.1
19:15 1022 30.18 852 25.16 12.3 54.1 46 1.1 33.9
19:20 1022 30.18 852 25.16 12.8 55 47 1.8 35.2
19:25 1022 30.18 852 25.16 13 55.4 44 1.2 34.1
19:30 1022 30.18 852 25.16 12.7 54.8 46 1.5 34.8
19:35 1022 30.18 852 25.16 12.6 54.6 46 1.4 34.5
19:40 1022 30.18 852 25.16 12.2 53.9 47 1.4 34.5
19:45 1022 30.18 852 25.16 11.8 53.3 48 1.1 34
19:50 1022 30.18 852 25.16 11.9 53.4 48 1.2 34.2
19:55 1022 30.18 852 25.16 11.8 53.3 48 1.2 34.1
20:00 1022 30.18 852 25.16 11.7 53 48 0.9 33.7
20:05 1022 30.18 852 25.16 11.6 52.9 48 1.1 33.9
20:10 1022 30.18 852 25.16 11.7 53 48 1 33.8
20:15 1022 30.18 852 25.16 11.5 52.8 48 0.9 33.7
20:20 1022 30.18 852 25.16 11.5 52.7 48 0.8 33.5
20:25 1023 30.21 852 25.16 11.8 53.2 45 0.4 32.8
20:30 1023 30.21 852 25.16 12.5 54.5 43 0.2 32.4
20:35 1023 30.21 852 25.16 12.9 55.2 43 0.6 33
20:40 1023 30.21 852 25.16 12.5 54.5 44 0.6 33.1
20:45 1023 30.21 852 25.16 12.8 55 42 0.2 32.4
20:50 1022 30.18 852 25.16 12.5 54.6 44 0.7 33.2
20:55 1022 30.18 852 25.16 12.4 54.4 45 0.7 33.3
21:00 1023 30.21 852 25.16 12.3 54.1 44 0.4 32.8
21:05 1022 30.18 852 25.16 12.2 53.9 44 0.5 32.9
21:10 1022 30.18 852 25.16 12.2 53.9 44 0.2 32.4
21:15 1022 30.18 852 25.16 12.4 54.3 43 0.3 32.5
21:20 1022 30.18 852 25.16 12 53.6 46 0.8 33.4
21:25 1023 30.21 852 25.16 12.3 54.2 43 0.3 32.5
21:30 1022 30.18 852 25.16 12.2 54 43 0.1 32.2
21:35 1022 30.18 852 25.16 12.6 54.7 42 0.2 32.3
21:40 1022 30.18 852 25.16 12.5 54.5 43 0.3 32.5
21:45 1022 30.18 852 25.16 12.2 53.9 44 0.4 32.7
21:50 1022 30.18 852 25.16 11.8 53.2 46 0.4 32.8
21:55 1022 30.18 852 25.16 12.1 53.8 43 0.1 32.2
22:00 1023 30.21 852 25.16 12 53.7 45 0.5 32.8
22:05 1023 30.21 852 25.16 11.3 52.4 49 0.9 33.6
22:10 1022 30.18 852 25.16 11 51.7 49 0.7 33.2
22:15 1022 30.18 852 25.16 10.8 51.5 47 -0.1 31.8
22:20 1022 30.18 852 25.16 11.5 52.7 44 -0.1 31.8
22:25 1022 30.18 852 25.16 11.6 52.8 45 0.2 32.4
22:30 1022 30.18 852 25.16 11.8 53.2 44 -0.2 31.7
22:35 1022 30.18 852 25.16 11.9 53.5 45 0.4 32.6
22:40 1022 30.18 852 25.16 11.5 52.7 46 0.4 32.8
22:45 1022 30.18 851 25.13 11.3 52.3 46 0.2 32.4
22:50 1022 30.18 852 25.16 11.6 52.8 47 0.6 33
22:55 1022 30.18 851 25.13 11 51.8 48 0.5 32.9
23:00 1022 30.18 851 25.13 10.8 51.4 49 0.5 32.9
23:05 1022 30.18 851 25.13 10.4 50.8 50 0.6 33
23:10 1022 30.18 851 25.13 10.4 50.7 49 0.2 32.4
23:15 1022 30.18 851 25.13 10.4 50.7 48 -0.2 31.6
23:20 1022 30.18 851 25.13 11.8 53.2 43 -0.4 31.4
23:25 1022 30.18 851 25.13 11.5 52.8 47 0.6 33.1
23:30 1022 30.18 851 25.13 11.5 52.6 46 0.3 32.5
23:35 1022 30.18 851 25.13 11.2 52.2 45 -0.4 31.4
23:40 1022 30.18 851 25.13 11.4 52.5 47 0.4 32.7
23:45 1022 30.18 851 25.13 11.2 52.2 46 -0.1 31.9
23:50 1022 30.18 851 25.13 11.1 51.9 46 0.1 32.1
23:55 1022 30.18 851 25.13 10.8 51.4 47 0.1 32.2
24:00 1022 30.18 851 25.13 10.5 50.8 49 0.2 32.4